This is the latest recevied weather packets stored in our database for station/object K6GMW. If no packets are shown the sender has not sent any weather packets the latest 10 day(s).
| Time | Temp. | Humidity | Pressure | Rain* | Wind** | Luminosity | Snow |
|---|---|---|---|---|---|---|---|
| 1788121080 | 39.44° C | 29% | 1015.6 hPa | 0 mm | - | 829 W/m² | - |
| 1788120775 | 39.44° C | 29% | 1015.7 hPa | 0 mm | - | 497 W/m² | - |
| 1788120471 | 38.89° C | 30% | 1015.6 hPa | 0 mm | - | 868 W/m² | - |
| 1788120170 | 38.89° C | 33% | 1015.8 hPa | 0 mm | - | 882 W/m² | - |
| 1788119866 | 37.78° C | 33% | 1016 hPa | 0 mm | - | 878 W/m² | - |
| 1788119564 | 38.33° C | 32% | 1016 hPa | 0 mm | - | 882 W/m² | - |
| 1788119262 | 38.33° C | 32% | 1015.9 hPa | 0 mm | - | 892 W/m² | - |
| 1788118958 | 38.33° C | 32% | 1016.1 hPa | 0 mm | - | 898 W/m² | - |
| 1788118658 | 38.33° C | 32% | 1016.2 hPa | 0 mm | - | 903 W/m² | - |
| 1788118352 | 38.33° C | 32% | 1016.2 hPa | 0 mm | - | 882 W/m² | - |
| 1788118048 | 38.33° C | 34% | 1016.3 hPa | 0 mm | - | 916 W/m² | - |
| 1788117748 | 37.78° C | 35% | 1016.5 hPa | 0 mm | - | 934 W/m² | - |
| 1788117444 | 36.11° C | 38% | 1016.5 hPa | 0 mm | - | 912 W/m² | - |
| 1788117143 | 36.67° C | 37% | 1016.6 hPa | 0 mm | - | 215 W/m² | - |
| 1788116839 | 37.78° C | 35% | 1016.5 hPa | 0 mm | - | 213 W/m² | - |
| 1788116534 | 37.78° C | 33% | 1016.8 hPa | 0 mm | - | 974 W/m² | - |
| 1788116232 | 37.22° C | 33% | 1016.5 hPa | 0 mm | - | 980 W/m² | - |
| 1788115928 | 37.22° C | 35% | 1016.8 hPa | 0 mm | - | 954 W/m² | - |
| 1788115627 | 37.22° C | 35% | 1016.7 hPa | 0 mm | - | 1001 W/m² | - |
| 1788115327 | 37.22° C | 36% | 1016.9 hPa | 0 mm | - | 1021 W/m² | - |
| 1788115022 | 37.22° C | 36% | 1016.9 hPa | 0 mm | - | 1033 W/m² | - |
| 1788114717 | 36.67° C | 38% | 1016.9 hPa | 0 mm | - | 1019 W/m² | - |
| 1788114412 | 36.67° C | 39% | 1016.9 hPa | 0 mm | - | 990 W/m² | - |
| 1788114109 | 36.67° C | 40% | 1017.1 hPa | 0 mm | - | 986 W/m² | - |
| 1788113805 | 36.67° C | 40% | 1017.4 hPa | 0 mm | - | 966 W/m² | - |
* Rain latest hour (hover to see other rain measurements)
** Current wind speed in m/s (hover to see current wind gust speed)